Terminal Aerodrome Forecast
Issued by NWS

Home | Current Version | Previous Version | Graphics & Text | Print | Product List | Glossary On
Versions: 1 2 3 4 5 6 7 8 9 10 11 12 13 14 15 16 17 18 19 20 21 22 23
000
FTUS43 KOAX 300749 AAA
TAFCDR
TAF AMD
KCDR 300749Z 3008/3106 VRB03KT 1SM BR BKN002
      TEMPO 3008/3012 1/4SM FG
     FM301600 16011KT P6SM SCT250=

USA.gov is the U.S. government's official web portal to all federal, state and local government web resources and services.